Terminal Aerodrome Forecast
Issued by NWS

Home | Current Version | Previous Version | Text Only | Print | Product List | Glossary On
Versions: 1 2 3 4 5 6 7 8 9 10 11 12 13 14 15 16 17 18 19 20 21 22 23
000
FTUS44 KLZK 041100
TAFADF
TAF
KADF 041120Z 0412/0512 00000KT 1/2SM -RA FG OVC004
     FM041500 36009KT 3SM -RA BR OVC003
     FM050200 01012G18KT 2SM -FZRA BR OVC003
     FM050500 02014G20KT 1SM -PL BR OVC003
     FM050900 02015G22KT 1SM -SN BR OVC004=

USA.gov is the U.S. government's official web portal to all federal, state and local government web resources and services.